createdAt,value
2017-10-23T00:00:40.779Z,19.73
2017-10-23T00:03:09.263Z,19.71
2017-10-23T00:05:37.655Z,19.71
2017-10-23T00:08:05.971Z,19.72
2017-10-23T00:10:34.316Z,19.72
2017-10-23T00:13:02.641Z,19.72
2017-10-23T00:15:31.014Z,19.71
2017-10-23T00:17:59.320Z,19.71
2017-10-23T00:20:27.630Z,19.71
2017-10-23T00:22:55.926Z,19.71
2017-10-23T00:25:24.292Z,19.68
2017-10-23T00:27:52.879Z,19.69
2017-10-23T00:30:21.178Z,19.68
2017-10-23T00:32:49.448Z,19.71
2017-10-23T00:35:17.743Z,19.70
2017-10-23T00:37:46.055Z,19.72
2017-10-23T00:40:14.393Z,19.71
2017-10-23T00:42:42.711Z,19.72
2017-10-23T00:45:11.023Z,19.70
2017-10-23T00:47:39.323Z,19.73
2017-10-23T00:50:07.767Z,19.70
2017-10-23T00:52:36.236Z,19.72
2017-10-23T00:55:04.637Z,19.72
2017-10-23T00:57:33.145Z,19.70
2017-10-23T01:00:01.432Z,19.67
2017-10-23T01:02:29.828Z,19.67
2017-10-23T01:04:58.107Z,19.68
2017-10-23T01:07:26.464Z,19.69
2017-10-23T01:09:54.753Z,19.67
2017-10-23T01:12:23.123Z,19.67
2017-10-23T01:14:51.399Z,19.65
2017-10-23T01:17:19.786Z,19.66
2017-10-23T01:19:48.063Z,19.66
2017-10-23T01:22:16.415Z,19.70
2017-10-23T01:24:44.710Z,19.70
2017-10-23T01:27:13.249Z,19.67
2017-10-23T01:29:41.763Z,19.66
2017-10-23T01:32:10.074Z,19.66
2017-10-23T01:34:38.376Z,19.66
2017-10-23T01:37:06.707Z,19.70
2017-10-23T01:39:34.984Z,19.67
2017-10-23T01:42:03.389Z,19.67
2017-10-23T01:44:32.045Z,19.66
2017-10-23T01:47:00.351Z,19.63
2017-10-23T01:49:28.803Z,19.63
2017-10-23T01:51:57.316Z,19.62
2017-10-23T01:54:25.863Z,19.65
2017-10-23T01:56:54.155Z,19.66
2017-10-23T01:59:22.519Z,19.64
2017-10-23T02:01:50.912Z,19.64
2017-10-23T02:04:19.291Z,19.62
2017-10-23T02:06:47.787Z,19.63
2017-10-23T02:09:16.085Z,19.62
2017-10-23T02:11:44.380Z,19.59
2017-10-23T02:14:12.663Z,19.61
2017-10-23T02:16:41.096Z,19.62
2017-10-23T02:19:09.554Z,19.61
2017-10-23T02:21:37.848Z,19.59
2017-10-23T02:24:06.159Z,19.64
2017-10-23T02:26:34.464Z,19.60
2017-10-23T02:29:02.747Z,19.58
2017-10-23T02:31:31.090Z,19.59
2017-10-23T02:33:59.352Z,19.58
2017-10-23T02:36:27.660Z,19.58
2017-10-23T02:38:55.947Z,19.59
2017-10-23T02:41:24.312Z,19.59
2017-10-23T02:43:52.703Z,19.54
2017-10-23T02:46:21.000Z,19.55
2017-10-23T02:48:49.263Z,19.58
2017-10-23T02:51:17.589Z,19.57
2017-10-23T02:53:46.015Z,19.55
2017-10-23T02:56:14.323Z,19.58
2017-10-23T02:58:42.797Z,19.53
2017-10-23T03:01:11.119Z,19.56
2017-10-23T03:03:39.419Z,19.56
2017-10-23T03:06:07.701Z,19.59
2017-10-23T03:08:36.000Z,19.58
2017-10-23T03:11:04.299Z,19.57
2017-10-23T03:13:32.827Z,19.57
2017-10-23T03:16:01.271Z,19.56
2017-10-23T03:18:29.576Z,19.57
2017-10-23T03:20:57.928Z,19.53
2017-10-23T03:23:26.375Z,19.55
2017-10-23T03:25:54.700Z,19.55
2017-10-23T03:28:23.023Z,19.56
2017-10-23T03:30:51.336Z,19.57
2017-10-23T03:33:19.637Z,19.55
2017-10-23T03:35:47.932Z,19.54
2017-10-23T03:38:16.193Z,19.58
2017-10-23T03:40:44.495Z,19.54
2017-10-23T03:43:12.842Z,19.53
2017-10-23T03:45:41.305Z,19.54
2017-10-23T03:48:09.598Z,19.54
2017-10-23T03:50:37.912Z,19.54
2017-10-23T03:53:06.287Z,19.54
2017-10-23T03:55:34.804Z,19.54
2017-10-23T03:58:03.180Z,19.52
2017-10-23T04:00:31.567Z,19.52
2017-10-23T04:03:00.016Z,19.55
2017-10-23T04:05:28.311Z,19.54
2017-10-23T04:07:56.679Z,19.55
2017-10-23T04:10:24.978Z,19.54
2017-10-23T04:12:53.300Z,19.53
2017-10-23T04:15:21.619Z,19.54
2017-10-23T04:17:49.919Z,19.53
2017-10-23T04:20:18.231Z,19.51
2017-10-23T04:22:46.605Z,19.54
2017-10-23T04:25:15.065Z,19.52
2017-10-23T04:27:43.379Z,19.53
2017-10-23T04:30:11.716Z,19.51
2017-10-23T04:32:40.011Z,19.51
2017-10-23T04:35:08.464Z,19.52
2017-10-23T04:37:36.715Z,19.49
2017-10-23T04:40:05.116Z,19.50
2017-10-23T04:42:33.499Z,19.53
2017-10-23T04:45:01.812Z,19.52
2017-10-23T04:47:30.171Z,19.50
2017-10-23T04:49:59.480Z,19.50
2017-10-23T04:52:27.857Z,19.47
2017-10-23T04:54:56.122Z,19.47
2017-10-23T04:57:24.464Z,19.47
2017-10-23T04:59:52.718Z,19.47
2017-10-23T05:02:21.055Z,19.48
2017-10-23T05:04:49.320Z,19.52
2017-10-23T05:07:17.676Z,19.51
2017-10-23T05:09:45.965Z,19.48
2017-10-23T05:12:14.321Z,19.46
2017-10-23T05:14:42.618Z,19.49
2017-10-23T05:17:10.960Z,19.51
2017-10-23T05:19:39.325Z,19.49
2017-10-23T05:22:07.676Z,19.48
2017-10-23T05:24:35.972Z,19.47
2017-10-23T05:27:04.496Z,19.47
2017-10-23T05:29:32.965Z,19.47
2017-10-23T05:32:01.340Z,19.48
2017-10-23T05:34:29.827Z,19.50
2017-10-23T05:36:58.267Z,19.52
2017-10-23T05:39:26.771Z,19.51
2017-10-23T05:41:55.059Z,19.49
2017-10-23T05:44:23.615Z,19.54
2017-10-23T05:46:51.947Z,19.54
2017-10-23T05:49:20.395Z,19.55
2017-10-23T05:51:48.716Z,19.62
2017-10-23T05:54:16.990Z,19.62
2017-10-23T05:56:45.479Z,19.63
2017-10-23T05:59:13.779Z,19.62
2017-10-23T06:01:42.206Z,19.63
2017-10-23T06:04:10.581Z,19.64
2017-10-23T06:06:38.997Z,19.67
2017-10-23T06:09:07.416Z,19.67
2017-10-23T06:11:35.940Z,19.69
2017-10-23T06:14:04.270Z,19.70
2017-10-23T06:16:32.686Z,19.71
2017-10-23T06:19:01.313Z,19.73
2017-10-23T06:21:30.083Z,19.72
2017-10-23T06:23:58.360Z,19.69
2017-10-23T06:26:26.803Z,19.70
2017-10-23T06:28:55.268Z,19.74
2017-10-23T06:31:23.584Z,19.71
2017-10-23T06:33:52.080Z,19.70
2017-10-23T06:36:20.405Z,19.71
2017-10-23T06:38:48.832Z,19.71
2017-10-23T06:41:17.273Z,19.71
2017-10-23T06:43:45.735Z,19.72
2017-10-23T06:46:14.156Z,19.73
2017-10-23T06:48:42.687Z,19.73
2017-10-23T06:51:10.996Z,19.74
2017-10-23T06:53:39.297Z,19.74
2017-10-23T06:56:07.791Z,19.75
2017-10-23T06:58:36.216Z,19.75
2017-10-23T07:01:04.526Z,19.76
2017-10-23T07:03:32.804Z,19.76
2017-10-23T07:06:01.136Z,19.77
2017-10-23T07:08:29.682Z,19.77
2017-10-23T07:10:59.464Z,19.76
2017-10-23T07:13:28.457Z,19.76
2017-10-23T07:15:57.293Z,19.79
2017-10-23T07:18:27.711Z,19.78
2017-10-23T07:20:56.277Z,19.79
2017-10-23T07:23:24.592Z,19.78
2017-10-23T07:25:53.012Z,19.78
2017-10-23T07:28:21.331Z,19.78
2017-10-23T07:30:49.651Z,19.78
2017-10-23T07:33:17.971Z,19.77
2017-10-23T07:35:46.665Z,19.77
2017-10-23T07:38:15.847Z,19.76
2017-10-23T07:40:44.256Z,19.76
2017-10-23T07:43:12.759Z,19.75
2017-10-23T07:45:41.271Z,19.75
2017-10-23T07:48:09.724Z,19.74
2017-10-23T07:50:38.231Z,19.74
2017-10-23T07:53:07.373Z,19.74
2017-10-23T07:55:35.885Z,19.74
2017-10-23T07:58:04.165Z,19.75
2017-10-23T08:00:32.509Z,19.76
2017-10-23T08:03:00.937Z,19.75
2017-10-23T08:05:29.272Z,19.77
2017-10-23T08:07:57.568Z,19.75
2017-10-23T08:10:26.076Z,19.76
2017-10-23T08:12:54.363Z,19.75
2017-10-23T08:15:22.828Z,19.75
2017-10-23T08:17:51.189Z,19.74
2017-10-23T08:20:19.744Z,19.76
2017-10-23T08:22:48.021Z,19.76
2017-10-23T08:25:16.352Z,19.74
2017-10-23T08:27:44.616Z,19.73
2017-10-23T08:30:12.928Z,19.74
2017-10-23T08:32:41.284Z,19.82
2017-10-23T08:35:09.707Z,19.91
2017-10-23T08:37:38.093Z,20.01
2017-10-23T08:40:06.416Z,20.02
2017-10-23T08:42:35.025Z,19.98
2017-10-23T08:45:03.630Z,19.97
2017-10-23T08:47:32.052Z,19.95
2017-10-23T08:50:00.496Z,19.93
2017-10-23T08:52:28.932Z,19.92
2017-10-23T08:54:57.271Z,19.93
2017-10-23T08:57:25.805Z,19.87
2017-10-23T08:59:54.118Z,19.87
2017-10-23T09:02:22.464Z,19.89
2017-10-23T09:04:51.006Z,19.92
2017-10-23T09:07:20.134Z,19.91
2017-10-23T09:09:48.530Z,19.92
2017-10-23T09:12:16.873Z,19.89
2017-10-23T09:14:45.233Z,19.85
2017-10-23T09:17:13.572Z,19.89
2017-10-23T09:19:41.873Z,19.86
2017-10-23T09:22:10.212Z,19.86
2017-10-23T09:24:39.128Z,19.85
2017-10-23T09:27:08.076Z,19.84
2017-10-23T09:29:36.363Z,19.84
2017-10-23T09:32:04.672Z,19.82
2017-10-23T09:34:32.935Z,19.84
2017-10-23T09:37:01.317Z,19.83
2017-10-23T09:39:29.696Z,19.82
2017-10-23T09:41:58.127Z,19.76
2017-10-23T09:44:26.414Z,19.80
2017-10-23T09:46:54.783Z,19.75
2017-10-23T09:49:23.055Z,19.78
2017-10-23T09:51:51.359Z,19.78
2017-10-23T09:54:19.615Z,19.77
2017-10-23T09:56:48.088Z,19.80
2017-10-23T09:59:16.509Z,19.81
2017-10-23T10:01:45.133Z,19.79
2017-10-23T10:04:13.484Z,19.76
2017-10-23T10:06:41.800Z,19.78
2017-10-23T10:09:10.294Z,19.77
2017-10-23T10:11:38.949Z,19.74
2017-10-23T10:14:07.243Z,19.77
2017-10-23T10:16:36.463Z,19.75
2017-10-23T10:19:05.757Z,19.76
2017-10-23T10:21:34.347Z,19.77
2017-10-23T10:24:02.681Z,19.76
2017-10-23T10:26:32.192Z,19.77
2017-10-23T10:29:00.771Z,19.78
2017-10-23T10:31:29.162Z,19.77
2017-10-23T10:33:57.436Z,19.76
2017-10-23T10:36:25.739Z,19.77
2017-10-23T10:38:54.096Z,19.75
2017-10-23T10:41:22.433Z,19.75
2017-10-23T10:43:51.772Z,19.75
2017-10-23T10:46:20.360Z,19.73
2017-10-23T10:48:48.928Z,19.74
2017-10-23T10:51:17.319Z,19.73
2017-10-23T10:53:45.704Z,19.73
2017-10-23T10:56:14.183Z,19.70
2017-10-23T10:58:42.461Z,19.71
2017-10-23T11:01:10.829Z,19.71
2017-10-23T11:03:39.100Z,19.70
2017-10-23T11:06:07.581Z,19.69
2017-10-23T11:08:35.878Z,19.66
2017-10-23T11:11:04.360Z,19.68
2017-10-23T11:13:32.649Z,19.70
2017-10-23T11:16:01.135Z,19.69
2017-10-23T11:18:29.594Z,19.71
2017-10-23T11:20:57.894Z,19.71
2017-10-23T11:23:26.393Z,19.73
2017-10-23T11:25:54.719Z,19.76
2017-10-23T11:28:23.046Z,19.83
2017-10-23T11:30:51.335Z,19.89
2017-10-23T11:33:19.605Z,19.91
2017-10-23T11:35:47.921Z,19.84
2017-10-23T11:38:16.220Z,19.83
2017-10-23T11:40:44.515Z,19.83
2017-10-23T11:43:12.920Z,19.84
2017-10-23T11:45:41.212Z,19.85
2017-10-23T11:48:09.497Z,19.85
2017-10-23T11:50:38.155Z,19.86
2017-10-23T11:53:07.130Z,19.86
2017-10-23T11:55:35.583Z,19.85
2017-10-23T11:58:03.896Z,19.85
2017-10-23T12:00:32.351Z,19.86
2017-10-23T12:03:00.683Z,19.86
2017-10-23T12:05:29.003Z,19.87
2017-10-23T12:07:57.303Z,19.87
2017-10-23T12:10:25.647Z,19.87
2017-10-23T12:12:54.113Z,19.89
2017-10-23T12:15:22.424Z,19.89
2017-10-23T12:17:50.751Z,19.91
2017-10-23T12:20:19.068Z,19.92
2017-10-23T12:22:47.723Z,19.92
2017-10-23T12:25:16.390Z,19.93
2017-10-23T12:27:44.764Z,19.92
2017-10-23T12:30:13.055Z,19.94
2017-10-23T12:32:41.460Z,19.93
2017-10-23T12:35:10.243Z,19.94
2017-10-23T12:37:38.607Z,19.95
2017-10-23T12:40:07.015Z,19.97
2017-10-23T12:42:35.364Z,19.98
2017-10-23T12:45:03.742Z,19.98
2017-10-23T12:47:32.231Z,20.00
2017-10-23T12:50:00.692Z,20.01
2017-10-23T12:52:29.223Z,20.02
2017-10-23T12:54:57.639Z,20.03
2017-10-23T12:57:26.006Z,20.03
2017-10-23T12:59:55.083Z,20.04
2017-10-23T13:02:23.524Z,20.03
2017-10-23T13:04:51.813Z,20.03
2017-10-23T13:07:20.150Z,20.04
2017-10-23T13:09:48.394Z,20.04
2017-10-23T13:12:16.833Z,20.04
2017-10-23T13:14:45.296Z,20.07
2017-10-23T13:17:13.636Z,20.06
2017-10-23T13:19:41.992Z,20.07
2017-10-23T13:22:10.333Z,20.08
2017-10-23T13:24:38.615Z,20.07
2017-10-23T13:27:07.116Z,20.06
2017-10-23T13:29:35.564Z,20.06
2017-10-23T13:32:03.867Z,20.06
2017-10-23T13:34:32.148Z,20.06
2017-10-23T13:37:00.488Z,20.06
2017-10-23T13:39:28.795Z,20.05
2017-10-23T13:41:57.587Z,20.06
2017-10-23T13:44:26.039Z,20.07
2017-10-23T13:46:54.406Z,20.07
2017-10-23T13:49:23.391Z,20.05
2017-10-23T13:51:51.713Z,20.06
2017-10-23T13:54:20.032Z,20.07
2017-10-23T13:56:48.503Z,20.04
2017-10-23T13:59:17.435Z,20.04
2017-10-23T14:01:45.783Z,20.06
2017-10-23T14:04:14.096Z,20.06
2017-10-23T14:06:42.403Z,20.05
2017-10-23T14:09:10.715Z,20.05
2017-10-23T14:11:39.173Z,20.06
2017-10-23T14:14:07.618Z,20.06
2017-10-23T14:16:35.954Z,20.06
2017-10-23T14:19:04.587Z,20.07
2017-10-23T14:21:32.891Z,20.06
2017-10-23T14:24:01.327Z,20.08
2017-10-23T14:26:30.230Z,20.11
2017-10-23T14:28:58.718Z,20.11
2017-10-23T14:31:27.269Z,20.10
2017-10-23T14:33:55.536Z,20.10
2017-10-23T14:36:23.980Z,20.10
2017-10-23T14:38:52.443Z,20.11
2017-10-23T14:41:20.859Z,20.13
2017-10-23T14:43:50.026Z,20.11
2017-10-23T14:46:18.395Z,20.10
2017-10-23T14:48:47.428Z,20.13
2017-10-23T14:51:15.763Z,20.17
2017-10-23T14:53:44.143Z,20.15
2017-10-23T14:56:12.477Z,20.16
2017-10-23T14:58:40.824Z,20.17
2017-10-23T15:01:10.921Z,20.22
2017-10-23T15:03:39.228Z,20.15
2017-10-23T15:06:07.555Z,20.12
2017-10-23T15:08:35.875Z,20.13
2017-10-23T15:11:04.356Z,20.15
2017-10-23T15:13:32.691Z,20.16
2017-10-23T15:16:01.929Z,20.18
2017-10-23T15:18:30.238Z,20.20
2017-10-23T15:20:58.559Z,20.20
2017-10-23T15:23:26.834Z,20.18
2017-10-23T15:25:55.203Z,20.17
2017-10-23T15:28:23.500Z,20.17
2017-10-23T15:30:51.965Z,20.15
2017-10-23T15:33:20.412Z,20.17
2017-10-23T15:35:48.700Z,20.17
2017-10-23T15:38:16.988Z,20.18
2017-10-23T15:40:45.721Z,20.25
2017-10-23T15:43:14.108Z,20.20
2017-10-23T15:45:42.459Z,20.19
2017-10-23T15:48:10.748Z,20.20
2017-10-23T15:50:39.041Z,20.23
2017-10-23T15:53:07.364Z,20.22
2017-10-23T15:55:35.671Z,20.17
2017-10-23T15:58:04.019Z,20.20
2017-10-23T16:00:32.649Z,20.22
2017-10-23T16:03:00.964Z,20.22
2017-10-23T16:05:29.269Z,20.35
2017-10-23T16:07:57.727Z,20.43
2017-10-23T16:10:26.063Z,20.39
2017-10-23T16:12:54.388Z,20.36
2017-10-23T16:15:22.960Z,20.39
2017-10-23T16:17:51.340Z,20.41
2017-10-23T16:20:19.736Z,20.41
2017-10-23T16:22:48.195Z,20.46
2017-10-23T16:25:16.503Z,20.46
2017-10-23T16:27:44.963Z,20.48
2017-10-23T16:30:13.312Z,20.47
2017-10-23T16:32:41.699Z,20.50
2017-10-23T16:35:10.228Z,20.50
2017-10-23T16:37:38.809Z,20.46
2017-10-23T16:40:07.112Z,20.47
2017-10-23T16:42:35.551Z,20.43
2017-10-23T16:45:04.037Z,20.38
2017-10-23T16:47:32.382Z,20.35
2017-10-23T16:50:00.635Z,20.34
2017-10-23T16:52:29.196Z,20.34
2017-10-23T16:54:57.463Z,20.35
2017-10-23T16:57:25.887Z,20.36
2017-10-23T16:59:54.209Z,20.41
2017-10-23T17:02:22.616Z,20.41
2017-10-23T17:04:50.879Z,20.37
2017-10-23T17:07:19.404Z,20.38
2017-10-23T17:09:47.676Z,20.37
2017-10-23T17:12:16.192Z,20.37
2017-10-23T17:14:44.468Z,20.36
2017-10-23T17:17:12.852Z,20.35
2017-10-23T17:19:41.151Z,20.31
2017-10-23T17:22:09.510Z,20.27
2017-10-23T17:24:37.977Z,20.25
2017-10-23T17:27:07.308Z,20.24
2017-10-23T17:29:35.937Z,20.22
2017-10-23T17:32:04.273Z,20.19
2017-10-23T17:34:32.723Z,20.20
2017-10-23T17:37:01.207Z,20.22
2017-10-23T17:39:29.807Z,20.21
2017-10-23T17:41:58.158Z,20.23
2017-10-23T17:44:26.659Z,20.23
2017-10-23T17:46:55.235Z,20.27
2017-10-23T17:49:23.594Z,20.26
2017-10-23T17:51:52.105Z,20.24
2017-10-23T17:54:20.367Z,20.29
2017-10-23T17:56:49.263Z,20.22
2017-10-23T17:59:17.720Z,20.19
2017-10-23T18:01:46.242Z,20.19
2017-10-23T18:04:15.828Z,20.19
2017-10-23T18:06:44.123Z,20.22
2017-10-23T18:09:12.434Z,20.27
2017-10-23T18:11:40.828Z,20.21
2017-10-23T18:14:09.456Z,20.20
2017-10-23T18:16:38.273Z,20.19
2017-10-23T18:19:06.713Z,20.19
2017-10-23T18:21:35.081Z,20.19
2017-10-23T18:24:03.453Z,20.19
2017-10-23T18:26:31.843Z,20.22
2017-10-23T18:29:01.191Z,20.23
2017-10-23T18:31:29.780Z,20.20
2017-10-23T18:33:58.110Z,20.20
2017-10-23T18:36:26.605Z,20.23
2017-10-23T18:38:55.328Z,20.27
2017-10-23T18:41:23.751Z,20.26
2017-10-23T18:43:52.382Z,20.28
2017-10-23T18:46:20.729Z,20.22
2017-10-23T18:48:49.166Z,20.21
2017-10-23T18:51:17.488Z,20.23
2017-10-23T18:53:45.963Z,20.21
2017-10-23T18:56:14.311Z,20.22
2017-10-23T18:58:42.672Z,20.21
2017-10-23T19:01:10.991Z,20.23
2017-10-23T19:03:39.451Z,20.22
2017-10-23T19:06:07.786Z,20.21
2017-10-23T19:08:36.155Z,20.19
2017-10-23T19:11:04.532Z,20.21
2017-10-23T19:13:32.847Z,20.19
2017-10-23T19:16:01.405Z,20.20
2017-10-23T19:18:29.992Z,20.19
2017-10-23T19:20:59.802Z,20.18
2017-10-23T19:23:28.307Z,20.16
2017-10-23T19:25:57.803Z,20.18
2017-10-23T19:28:26.147Z,20.17
2017-10-23T19:30:54.500Z,20.13
2017-10-23T19:33:23.073Z,20.20
2017-10-23T19:35:51.567Z,20.17
2017-10-23T19:38:19.867Z,20.18
2017-10-23T19:40:48.197Z,20.23
2017-10-23T19:43:16.599Z,20.24
2017-10-23T19:45:45.041Z,20.27
2017-10-23T19:48:13.539Z,20.26
2017-10-23T19:50:41.841Z,20.29
2017-10-23T19:53:10.224Z,20.28
2017-10-23T19:55:38.601Z,20.26
2017-10-23T19:58:07.020Z,20.26
2017-10-23T20:00:35.987Z,20.34
2017-10-23T20:03:04.926Z,20.42
2017-10-23T20:05:33.239Z,20.46
2017-10-23T20:08:02.552Z,20.50
2017-10-23T20:10:31.311Z,20.41
2017-10-23T20:12:59.697Z,20.38
2017-10-23T20:15:28.528Z,20.37
2017-10-23T20:17:57.413Z,20.39
2017-10-23T20:20:25.756Z,20.39
2017-10-23T20:22:54.122Z,20.40
2017-10-23T20:25:22.654Z,20.39
2017-10-23T20:27:51.047Z,20.40
2017-10-23T20:30:19.572Z,20.39
2017-10-23T20:32:47.860Z,20.40
2017-10-23T20:35:16.652Z,20.40
2017-10-23T20:37:45.030Z,20.41
2017-10-23T20:40:13.499Z,20.40
2017-10-23T20:42:41.968Z,20.41
2017-10-23T20:45:10.720Z,20.41
2017-10-23T20:47:39.128Z,20.41
2017-10-23T20:50:08.308Z,20.41
2017-10-23T20:52:36.596Z,20.51
2017-10-23T20:55:05.503Z,20.55
2017-10-23T20:57:34.109Z,20.49
2017-10-23T21:00:03.760Z,20.47
2017-10-23T21:02:33.582Z,20.46
2017-10-23T21:05:02.235Z,20.45
2017-10-23T21:07:30.662Z,20.43
2017-10-23T21:09:59.192Z,20.43
2017-10-23T21:12:27.736Z,20.41
2017-10-23T21:14:56.307Z,20.40
2017-10-23T21:17:24.638Z,20.40
2017-10-23T21:19:52.927Z,20.38
2017-10-23T21:22:21.228Z,20.36
2017-10-23T21:24:49.486Z,20.36
2017-10-23T21:27:17.777Z,20.35
2017-10-23T21:29:46.060Z,20.32
2017-10-23T21:32:14.393Z,20.32
2017-10-23T21:34:42.704Z,20.31
2017-10-23T21:37:11.116Z,20.31
2017-10-23T21:39:39.459Z,20.31
2017-10-23T21:42:08.395Z,20.29
2017-10-23T21:44:37.395Z,20.29
2017-10-23T21:47:10.531Z,20.28
2017-10-23T21:49:38.887Z,20.27
2017-10-23T21:52:08.163Z,20.27
2017-10-23T21:54:36.572Z,20.26
2017-10-23T21:57:05.003Z,20.26
2017-10-23T21:59:33.332Z,20.25
2017-10-23T22:02:01.644Z,20.25
2017-10-23T22:04:29.980Z,20.24
2017-10-23T22:06:58.427Z,20.24
2017-10-23T22:09:26.734Z,20.25
2017-10-23T22:11:55.083Z,20.25
2017-10-23T22:14:23.370Z,20.24
2017-10-23T22:16:51.833Z,20.24
2017-10-23T22:19:20.327Z,20.23
2017-10-23T22:21:48.638Z,20.23
2017-10-23T22:24:17.035Z,20.20
2017-10-23T22:26:45.515Z,20.18
2017-10-23T22:29:13.795Z,20.18
2017-10-23T22:31:42.675Z,20.17
2017-10-23T22:34:11.168Z,20.16
2017-10-23T22:36:40.021Z,20.13
2017-10-23T22:39:08.283Z,20.14
2017-10-23T22:41:36.667Z,20.14
2017-10-23T22:44:04.955Z,20.14
2017-10-23T22:46:33.291Z,20.13
2017-10-23T22:49:01.609Z,20.09
2017-10-23T22:51:29.928Z,20.08
2017-10-23T22:53:58.415Z,20.10
2017-10-23T22:56:26.730Z,20.10
2017-10-23T22:58:55.027Z,20.07
2017-10-23T23:01:23.316Z,20.07
2017-10-23T23:03:51.732Z,20.05
2017-10-23T23:06:20.041Z,20.04
2017-10-23T23:08:48.471Z,20.03
2017-10-23T23:11:17.188Z,20.06
2017-10-23T23:13:45.479Z,20.02
2017-10-23T23:16:13.944Z,20.00
2017-10-23T23:18:42.219Z,20.00
2017-10-23T23:21:10.551Z,19.97
2017-10-23T23:23:38.955Z,19.96
2017-10-23T23:26:07.298Z,19.95
2017-10-23T23:28:35.580Z,19.97
2017-10-23T23:31:03.916Z,19.94
2017-10-23T23:33:32.252Z,19.94
2017-10-23T23:36:00.652Z,19.92
2017-10-23T23:38:29.880Z,19.91
2017-10-23T23:40:58.181Z,19.90
2017-10-23T23:43:26.579Z,19.90
2017-10-23T23:45:54.879Z,19.89
2017-10-23T23:48:23.130Z,19.88
2017-10-23T23:50:51.485Z,19.89
2017-10-23T23:53:19.796Z,19.89
2017-10-23T23:55:48.128Z,19.87
2017-10-23T23:58:16.451Z,19.87
